This is the latest recevied weather packets stored in our database for station/object DC4XK-10. If no packets are shown the sender has not sent any weather packets the latest 1 day(s).
| Time | Temp. | Humidity | Pressure | Rain* | Wind** | Luminosity | Snow |
|---|---|---|---|---|---|---|---|
| 1778100531 | 8.89° C | 88% | 1009.9 hPa | 0 mm | 0 m/s | - | - |
| 1778099331 | 8.89° C | 89% | 1009.6 hPa | 0 mm | 0 m/s | - | - |
| 1778098131 | 8.89° C | 89% | 1009.4 hPa | 0 mm | 0 m/s | - | - |
| 1778096331 | 9.44° C | 89% | 1009.4 hPa | 0 mm | 0 m/s | - | - |
| 1778095134 | 9.44° C | 88% | 1009.3 hPa | 0 mm | 0 m/s | - | - |
| 1778092731 | 10° C | 83% | 1008.9 hPa | 0 mm | 0 m/s | - | - |
| 1778091531 | 10° C | 82% | 1008.7 hPa | 0 mm | 0 m/s | - | - |
| 1778089731 | 10.56° C | 75% | 1008.3 hPa | 0 mm | 0 m/s | - | - |
| 1778088531 | 11.11° C | 75% | 1008 hPa | 0 mm | 0 m/s | - | - |
| 1778085531 | 11.67° C | 65% | 1007.8 hPa | 0 mm | 0 m/s | - | - |
| 1778082531 | 12.22° C | 67% | 1008 hPa | 0 mm | 0 m/s | - | - |
| 1778079531 | 12.78° C | 68% | 1008 hPa | 0 mm | 0 m/s | - | - |
| 1778078331 | 14.44° C | 63% | 1008.1 hPa | 0 mm | 0 m/s | - | - |
| 1778075931 | 15° C | 62% | 1007.7 hPa | 0 mm | 0.45 m/s, 295° | - | - |
| 1778075331 | 13.89° C | 62% | 1007.8 hPa | 0 mm | 0.45 m/s, 25° | - | - |
| 1778074131 | 15° C | 59% | 1007.7 hPa | 0 mm | 0 m/s | - | - |
| 1778072932 | 15.56° C | 56% | 1007.7 hPa | 0 mm | 0.45 m/s, 26° | - | - |
| 1778072331 | 16.67° C | 53% | 1007.5 hPa | 0 mm | 0.45 m/s, 11° | - | - |
| 1778071133 | 16.11° C | 51% | 1007.7 hPa | 0 mm | 2.24 m/s, 326° | - | - |
| 1778070531 | 16.11° C | 52% | 1007.6 hPa | 0 mm | 0 m/s | - | - |
| 1778069334 | 15.56° C | 51% | 1007.3 hPa | 0 mm | 1.79 m/s, 331° | - | - |
| 1778068731 | 15.56° C | 52% | 1007.3 hPa | 0 mm | 0 m/s | - | - |
| 1778068131 | 15.56° C | 50% | 1007.5 hPa | 0 mm | 0 m/s | - | - |
| 1778067534 | 15.56° C | 50% | 1007.5 hPa | 0 mm | 0 m/s | - | - |
| 1778066331 | 15° C | 51% | 1007.2 hPa | 0 mm | 2.24 m/s, 68° | - | - |
* Rain latest hour (hover to see other rain measurements)
** Current wind speed in m/s (hover to see current wind gust speed)